Terminal Aerodrome Forecast
Issued by NWS

Home | Current Version | Previous Version | Graphics & Text | Print | Product List | Glossary On
Versions: 1 2 3 4 5 6 7 8 9 10 11 12 13
000
FTUS43 KMPX 300800 AAA
TAFRNH
TAF AMD
KRNH 300837Z 3009/3106 30003KT P6SM SCT090
      TEMPO 3009/3012 5SM BR
     FM301500 32009KT P6SM SCT050
     FM310100 30002KT P6SM SKC=

USA.gov is the U.S. government's official web portal to all federal, state and local government web resources and services.